Time;durP1;ratioP1;P1;durP2;ratioP2;P2;SDS_P1;SDS_P2;PMS_P1;PMS_P2;Temp;Humidity;BMP_temperature;BMP_pressure;BME280_temperature;BME280_humidity;BME280_pressure;Samples;Min_cycle;Max_cycle;Signal;HPM_P1;HPM_P2
2021/08/08 00:00:24;;;;;;;;;;;14.60;99.90;;;;;;5077189;28;20007;-90
2021/08/08 00:02:51;;;;;;;;;;;14.60;99.90;;;;;;5076967;28;20027;-90
2021/08/08 00:05:19;;;;;;;;;;;14.60;99.90;;;;;;5077116;28;19932;-88
2021/08/08 00:07:48;;;;;;;;;;;14.60;99.90;;;;;;5076873;28;19932;-87
2021/08/08 00:10:15;;;;;;;;;;;14.60;99.90;;;;;;5077118;28;19928;-90
2021/08/08 00:12:43;;;;;;;;;;;14.60;99.90;;;;;;5076700;28;19924;-88
2021/08/08 00:15:12;;;;;;;;;;;14.60;99.90;;;;;;5076823;28;20261;-87
2021/08/08 00:17:40;;;;;;;;;;;14.60;99.90;;;;;;5076496;28;19934;-88
2021/08/08 00:20:07;;;;;;;;;;;14.60;99.90;;;;;;5076743;28;19925;-89
2021/08/08 00:22:36;;;;;;;;;;;14.60;99.90;;;;;;5076706;28;19935;-89
2021/08/08 00:25:02;;;;;;;;;;;14.60;99.90;;;;;;5076669;28;19967;-88
2021/08/08 00:27:31;;;;;;;;;;;14.60;99.90;;;;;;5076383;28;19931;-88
2021/08/08 00:29:57;;;;;;;;;;;14.60;99.90;;;;;;5076309;28;19924;-88
2021/08/08 00:32:24;;;;;;;;;;;14.60;99.90;;;;;;5076198;28;19925;-88
2021/08/08 00:34:51;;;;;;;;;;;14.60;99.90;;;;;;5075905;28;19938;-88
2021/08/08 00:37:18;;;;;;;;;;;14.60;99.90;;;;;;5075386;28;19924;-88
2021/08/08 00:39:46;;;;;;;;;;;14.60;99.90;;;;;;5075956;28;19924;-87
2021/08/08 00:42:13;;;;;;;;;;;14.60;99.90;;;;;;5076027;28;19925;-88
2021/08/08 00:44:40;;;;;;;;;;;14.60;99.90;;;;;;5076058;28;19999;-87
2021/08/08 00:47:07;;;;;;;;;;;14.60;99.90;;;;;;5076087;28;20273;-87
2021/08/08 00:49:34;;;;;;;;;;;14.50;99.90;;;;;;5075170;28;19935;-87
2021/08/08 00:52:01;;;;;;;;;;;14.60;99.90;;;;;;5075781;28;20342;-87
2021/08/08 00:54:28;;;;;;;;;;;14.60;99.90;;;;;;5075907;28;20338;-88
2021/08/08 00:56:56;;;;;;;;;;;14.60;99.90;;;;;;5075884;28;20257;-87
2021/08/08 00:59:23;;;;;;;;;;;14.60;99.90;;;;;;5075774;28;19924;-87
2021/08/08 01:01:50;;;;;;;;;;;14.60;99.90;;;;;;5076014;28;19924;-88
2021/08/08 01:04:17;;;;;;;;;;;14.50;99.90;;;;;;5075650;28;19928;-87
2021/08/08 01:06:45;;;;;;;;;;;14.50;99.90;;;;;;5075823;28;20023;-88
2021/08/08 01:09:12;;;;;;;;;;;14.50;99.90;;;;;;5075564;28;19925;-89
2021/08/08 01:11:39;;;;;;;;;;;14.50;99.90;;;;;;5075851;28;19931;-88
2021/08/08 01:14:08;;;;;;;;;;;14.50;99.90;;;;;;5075880;28;19924;-88
2021/08/08 01:16:34;;;;;;;;;;;14.50;99.90;;;;;;5075527;28;19924;-88
2021/08/08 01:19:01;;;;;;;;;;;14.50;99.90;;;;;;5075533;28;19924;-87
2021/08/08 01:21:28;;;;;;;;;;;14.50;99.90;;;;;;5075296;28;19925;-88
2021/08/08 01:23:57;;;;;;;;;;;14.50;99.90;;;;;;5075254;28;19939;-87
2021/08/08 01:26:24;;;;;;;;;;;14.50;99.90;;;;;;5075578;28;19984;-87
2021/08/08 01:28:53;;;;;;;;;;;14.50;99.90;;;;;;5075343;28;19928;-87
2021/08/08 01:31:19;;;;;;;;;;;14.50;99.90;;;;;;5075391;28;19933;-87
2021/08/08 01:33:46;;;;;;;;;;;14.50;99.90;;;;;;5075425;28;19938;-88
2021/08/08 01:36:13;;;;;;;;;;;14.50;99.90;;;;;;5075118;28;20285;-86
2021/08/08 01:38:40;;;;;;;;;;;14.50;99.90;;;;;;5075106;28;19924;-87
2021/08/08 01:41:09;;;;;;;;;;;14.50;99.90;;;;;;5075240;28;19939;-88
2021/08/08 01:43:36;;;;;;;;;;;14.50;99.90;;;;;;5075184;28;20281;-87
2021/08/08 01:46:04;;;;;;;;;;;14.50;99.90;;;;;;5075031;28;19924;-87
2021/08/08 01:48:31;;;;;;;;;;;14.50;99.90;;;;;;5075516;28;19990;-87
2021/08/08 01:50:58;;;;;;;;;;;14.50;99.90;;;;;;5075303;28;19924;-88
2021/08/08 01:53:25;;;;;;;;;;;14.50;99.90;;;;;;5074992;28;19938;-86
2021/08/08 01:55:52;;;;;;;;;;;14.50;99.90;;;;;;5075020;28;19924;-87
2021/08/08 01:58:20;;;;;;;;;;;14.50;99.90;;;;;;5075063;28;19925;-87
2021/08/08 02:00:49;;;;;;;;;;;14.50;99.90;;;;;;5075619;28;19932;-87
2021/08/08 02:03:15;;;;;;;;;;;14.50;99.90;;;;;;5079243;28;19925;-87
2021/08/08 02:05:42;;;;;;;;;;;14.50;99.90;;;;;;5079323;28;19924;-86
2021/08/08 02:08:09;;;;;;;;;;;14.50;99.90;;;;;;5079142;28;19925;-87
2021/08/08 02:10:36;;;;;;;;;;;14.50;99.90;;;;;;5078853;28;19932;-87
2021/08/08 02:13:03;;;;;;;;;;;14.50;99.90;;;;;;5079134;28;19925;-87
2021/08/08 02:15:31;;;;;;;;;;;14.50;99.90;;;;;;5079090;28;19924;-87
2021/08/08 02:17:58;;;;;;;;;;;14.50;99.90;;;;;;5079157;28;19928;-87
2021/08/08 02:20:25;;;;;;;;;;;14.40;99.90;;;;;;5078856;28;19931;-87
2021/08/08 02:22:52;;;;;;;;;;;14.50;99.90;;;;;;5078851;28;19929;-82
2021/08/08 02:25:19;;;;;;;;;;;14.50;99.90;;;;;;5078988;28;19925;-87
2021/08/08 02:27:45;;;;;;;;;;;14.50;99.90;;;;;;5078581;28;19935;-87
2021/08/08 02:30:12;;;;;;;;;;;14.40;99.90;;;;;;5078594;28;20439;-87
2021/08/08 02:32:41;;;;;;;;;;;14.40;99.90;;;;;;5078761;28;19924;-86
2021/08/08 02:35:08;;;;;;;;;;;14.40;99.90;;;;;;5078483;28;19928;-87
2021/08/08 02:37:35;;;;;;;;;;;14.40;99.90;;;;;;5078509;28;19924;-87
2021/08/08 02:40:02;;;;;;;;;;;14.40;99.90;;;;;;5078561;28;20360;-86
2021/08/08 02:42:28;;;;;;;;;;;14.40;99.90;;;;;;5078285;28;19925;-86
2021/08/08 02:44:55;;;;;;;;;;;14.30;99.90;;;;;;5078350;28;19924;-86
2021/08/08 02:47:22;;;;;;;;;;;14.40;99.90;;;;;;5078471;28;19924;-87
2021/08/08 02:49:50;;;;;;;;;;;14.40;99.90;;;;;;5078429;28;20250;-87
2021/08/08 02:52:17;;;;;;;;;;;14.40;99.90;;;;;;5078379;28;19924;-87
2021/08/08 02:54:44;;;;;;;;;;;14.30;99.90;;;;;;5078175;28;19924;-86
2021/08/08 02:57:11;;;;;;;;;;;14.40;99.90;;;;;;5078222;28;20376;-87
2021/08/08 02:59:37;;;;;;;;;;;14.30;99.90;;;;;;5078022;28;19928;-87
2021/08/08 03:02:04;;;;;;;;;;;14.30;99.90;;;;;;5077998;28;19935;-86
2021/08/08 03:04:31;;;;;;;;;;;14.30;99.90;;;;;;5078070;28;19950;-87
2021/08/08 03:07:00;;;;;;;;;;;14.30;99.90;;;;;;5078049;28;20419;-87
2021/08/08 03:09:26;;;;;;;;;;;14.30;99.90;;;;;;5078114;28;19924;-87
2021/08/08 03:11:53;;;;;;;;;;;14.30;99.90;;;;;;5077963;28;19928;-87
2021/08/08 03:14:20;;;;;;;;;;;14.30;99.90;;;;;;5077122;28;20350;-86
2021/08/08 03:16:47;;;;;;;;;;;14.40;99.90;;;;;;5077833;28;19936;-86
2021/08/08 03:19:14;;;;;;;;;;;14.40;99.90;;;;;;5077683;28;20269;-87
2021/08/08 03:21:41;;;;;;;;;;;14.40;99.90;;;;;;5077690;28;19925;-86
2021/08/08 03:24:09;;;;;;;;;;;14.40;99.90;;;;;;5077588;28;19924;-86
2021/08/08 03:26:36;;;;;;;;;;;14.40;99.90;;;;;;5077800;28;19931;-86
2021/08/08 03:29:03;;;;;;;;;;;14.40;99.90;;;;;;5077796;28;19924;-86
2021/08/08 03:31:30;;;;;;;;;;;14.40;99.90;;;;;;5077586;28;19935;-87
2021/08/08 03:33:57;;;;;;;;;;;14.40;99.90;;;;;;5077560;28;19931;-87
2021/08/08 03:36:24;;;;;;;;;;;14.40;99.90;;;;;;5077498;28;19947;-85
2021/08/08 03:38:50;;;;;;;;;;;14.40;99.90;;;;;;5077083;28;20277;-85
2021/08/08 03:41:19;;;;;;;;;;;14.40;99.90;;;;;;5077346;28;20354;-87
2021/08/08 03:43:46;;;;;;;;;;;14.40;99.90;;;;;;5077362;28;19931;-86
2021/08/08 03:46:12;;;;;;;;;;;14.40;99.90;;;;;;5077240;28;19935;-87
2021/08/08 03:48:39;;;;;;;;;;;14.40;99.90;;;;;;5077277;28;19925;-87
2021/08/08 03:51:06;;;;;;;;;;;14.40;99.90;;;;;;5077172;28;19924;-86
2021/08/08 03:53:33;;;;;;;;;;;14.40;99.90;;;;;;5077009;28;19967;-87
2021/08/08 03:56:00;;;;;;;;;;;14.40;99.90;;;;;;5076959;28;19976;-87
2021/08/08 03:58:30;;;;;;;;;;;14.40;99.90;;;;;;5077237;28;20269;-86
2021/08/08 04:00:58;;;;;;;;;;;14.50;99.90;;;;;;5077024;28;19981;-87
2021/08/08 04:03:25;;;;;;;;;;;14.40;99.90;;;;;;5076724;28;19924;-87
2021/08/08 04:05:52;;;;;;;;;;;14.40;99.90;;;;;;5076705;28;19935;-87
2021/08/08 04:08:19;;;;;;;;;;;14.40;99.90;;;;;;5076780;28;19928;-87
2021/08/08 04:10:46;;;;;;;;;;;14.40;99.90;;;;;;5076981;28;19935;-87
2021/08/08 04:13:13;;;;;;;;;;;14.40;99.90;;;;;;5076830;28;19924;-87
2021/08/08 04:15:41;;;;;;;;;;;14.40;99.90;;;;;;5076840;28;20273;-87
2021/08/08 04:18:08;;;;;;;;;;;14.50;99.90;;;;;;5076609;28;20376;-86
2021/08/08 04:20:34;;;;;;;;;;;14.40;99.90;;;;;;5076502;28;19935;-87
2021/08/08 04:23:02;;;;;;;;;;;14.40;99.90;;;;;;5076310;28;19935;-88
2021/08/08 04:25:29;;;;;;;;;;;14.50;99.90;;;;;;5075507;28;19990;-87
2021/08/08 04:27:56;;;;;;;;;;;14.40;99.90;;;;;;5076408;28;19925;-89
2021/08/08 04:30:23;;;;;;;;;;;14.50;99.90;;;;;;5076646;28;19925;-87
2021/08/08 04:32:53;;;;;;;;;;;14.40;99.90;;;;;;5076491;28;20258;-87
2021/08/08 04:35:20;;;;;;;;;;;14.50;99.90;;;;;;5076114;28;19925;-87
2021/08/08 04:37:47;;;;;;;;;;;14.40;99.90;;;;;;5075943;28;20376;-88
2021/08/08 04:40:14;;;;;;;;;;;14.40;99.90;;;;;;5076146;28;20349;-88
2021/08/08 04:42:41;;;;;;;;;;;14.40;99.90;;;;;;5076117;28;19924;-88
2021/08/08 04:45:08;;;;;;;;;;;14.40;99.90;;;;;;5076100;28;19931;-88
2021/08/08 04:47:35;;;;;;;;;;;14.40;99.90;;;;;;5076079;28;19924;-88
2021/08/08 04:50:03;;;;;;;;;;;14.50;99.90;;;;;;5076053;28;19924;-88
2021/08/08 04:52:34;;;;;;;;;;;14.50;99.90;;;;;;5075939;28;19924;-88
2021/08/08 04:55:01;;;;;;;;;;;14.50;99.90;;;;;;5076135;28;20258;-89
2021/08/08 04:57:27;;;;;;;;;;;15.00;99.90;;;;;;5075800;28;19925;-88
2021/08/08 04:59:54;;;;;;;;;;;14.40;99.90;;;;;;5075943;28;19924;-87
2021/08/08 05:02:21;;;;;;;;;;;14.40;99.90;;;;;;5076084;28;19928;-88
2021/08/08 05:04:48;;;;;;;;;;;14.50;99.90;;;;;;5075571;28;19929;-88
2021/08/08 05:07:16;;;;;;;;;;;14.40;99.90;;;;;;5075640;28;20357;-89
2021/08/08 05:09:43;;;;;;;;;;;14.40;99.90;;;;;;5075530;28;19924;-88
2021/08/08 05:12:10;;;;;;;;;;;14.40;99.90;;;;;;5075573;28;19938;-87
2021/08/08 05:14:37;;;;;;;;;;;14.40;99.90;;;;;;5075559;28;20266;-88
2021/08/08 05:17:04;;;;;;;;;;;14.50;99.90;;;;;;5075518;28;19935;-88
2021/08/08 05:19:31;;;;;;;;;;;14.50;99.90;;;;;;5075572;28;19925;-88
2021/08/08 05:21:58;;;;;;;;;;;14.50;99.90;;;;;;5075491;28;19935;-88
2021/08/08 05:24:26;;;;;;;;;;;14.50;99.90;;;;;;5075496;28;19930;-88
2021/08/08 05:26:56;;;;;;;;;;;14.50;99.90;;;;;;5075344;28;19924;-88
2021/08/08 05:29:23;;;;;;;;;;;14.50;99.90;;;;;;5075435;28;19954;-87
2021/08/08 05:31:50;;;;;;;;;;;14.50;99.90;;;;;;5075591;28;19929;-88
2021/08/08 05:34:17;;;;;;;;;;;14.50;99.90;;;;;;5075383;28;19935;-88
2021/08/08 05:36:44;;;;;;;;;;;14.50;99.90;;;;;;5075610;28;19924;-89
2021/08/08 05:39:11;;;;;;;;;;;14.60;99.90;;;;;;5075374;28;19935;-88
2021/08/08 05:41:39;;;;;;;;;;;14.60;99.90;;;;;;5075556;28;19924;-90
2021/08/08 05:44:06;;;;;;;;;;;14.60;99.90;;;;;;5075456;28;19935;-91
2021/08/08 05:46:33;;;;;;;;;;;14.60;99.90;;;;;;5075565;28;19935;-91
2021/08/08 05:48:59;;;;;;;;;;;14.60;99.90;;;;;;5075593;28;19938;-91
2021/08/08 05:51:26;;;;;;;;;;;14.60;99.90;;;;;;5075606;28;19935;-91
2021/08/08 05:53:53;;;;;;;;;;;14.60;99.90;;;;;;5075460;28;19925;-91
2021/08/08 05:56:20;;;;;;;;;;;14.60;99.90;;;;;;5075533;28;19928;-91
2021/08/08 05:58:48;;;;;;;;;;;14.60;99.90;;;;;;5075267;28;20369;-91
2021/08/08 06:01:15;;;;;;;;;;;14.60;99.90;;;;;;5075723;28;19940;-91
2021/08/08 06:03:42;;;;;;;;;;;14.60;99.90;;;;;;5075483;28;19924;-91
2021/08/08 06:06:09;;;;;;;;;;;14.60;99.90;;;;;;5075461;28;19924;-90
2021/08/08 06:08:36;;;;;;;;;;;14.60;99.90;;;;;;5075348;28;19934;-90
2021/08/08 06:11:03;;;;;;;;;;;14.60;99.90;;;;;;5075223;28;19924;-91
2021/08/08 06:13:30;;;;;;;;;;;14.60;99.90;;;;;;5075362;28;19929;-91
2021/08/08 06:15:58;;;;;;;;;;;14.50;99.90;;;;;;5075387;28;19924;-91
2021/08/08 06:18:25;;;;;;;;;;;14.50;99.90;;;;;;5075397;28;20342;-91
2021/08/08 06:20:52;;;;;;;;;;;14.60;99.90;;;;;;5075144;28;19964;-91
2021/08/08 06:23:18;;;;;;;;;;;14.60;99.90;;;;;;5075116;28;19925;-91
2021/08/08 06:25:45;;;;;;;;;;;14.60;99.90;;;;;;5075185;28;19925;-91
2021/08/08 06:28:12;;;;;;;;;;;14.60;99.90;;;;;;5074983;28;19998;-91
2021/08/08 06:30:39;;;;;;;;;;;14.60;99.90;;;;;;5075275;28;19924;-90
2021/08/08 06:33:07;;;;;;;;;;;14.60;99.90;;;;;;5075291;28;19924;-90
2021/08/08 06:35:34;;;;;;;;;;;14.60;99.90;;;;;;5074937;28;20376;-90
2021/08/08 06:38:01;;;;;;;;;;;14.60;99.90;;;;;;5074893;28;20356;-91
2021/08/08 06:40:28;;;;;;;;;;;14.60;99.90;;;;;;5074924;28;19924;-90
2021/08/08 06:42:55;;;;;;;;;;;14.60;99.90;;;;;;5074917;28;19925;-91
2021/08/08 06:45:22;;;;;;;;;;;14.60;99.90;;;;;;5074872;28;19946;-90
2021/08/08 06:47:48;;;;;;;;;;;14.60;99.90;;;;;;5075542;28;19935;-91
2021/08/08 06:50:17;;;;;;;;;;;14.60;99.90;;;;;;5078736;28;19925;-90
2021/08/08 06:52:43;;;;;;;;;;;14.60;99.90;;;;;;5078586;28;19925;-90
2021/08/08 06:55:11;;;;;;;;;;;14.60;99.90;;;;;;5078480;28;19928;-89
2021/08/08 06:57:37;;;;;;;;;;;14.60;99.90;;;;;;5078404;28;19924;-91
2021/08/08 07:00:05;;;;;;;;;;;14.60;99.90;;;;;;5078389;28;19924;-90
2021/08/08 07:02:32;;;;;;;;;;;14.60;99.90;;;;;;5078547;28;20261;-90
2021/08/08 07:04:59;;;;;;;;;;;14.60;99.90;;;;;;5078298;28;19925;-90
2021/08/08 07:07:27;;;;;;;;;;;14.60;99.90;;;;;;5078365;28;19935;-90
2021/08/08 07:09:54;;;;;;;;;;;14.60;99.90;;;;;;5078061;28;19924;-89
2021/08/08 07:12:21;;;;;;;;;;;14.60;99.90;;;;;;5078368;28;19928;-90
2021/08/08 07:14:47;;;;;;;;;;;14.60;99.90;;;;;;5078380;28;19924;-90
2021/08/08 07:17:14;;;;;;;;;;;14.60;99.90;;;;;;5077947;28;20380;-90
2021/08/08 07:19:41;;;;;;;;;;;14.60;99.90;;;;;;5078185;28;19924;-90
2021/08/08 07:22:08;;;;;;;;;;;14.60;99.90;;;;;;5077688;28;19978;-88
2021/08/08 07:24:36;;;;;;;;;;;14.60;99.90;;;;;;5077531;28;19925;-89
2021/08/08 07:27:03;;;;;;;;;;;14.60;99.90;;;;;;5077709;28;19935;-89
2021/08/08 07:29:30;;;;;;;;;;;14.60;99.90;;;;;;5077684;28;19939;-89
2021/08/08 07:31:57;;;;;;;;;;;14.60;99.90;;;;;;5077858;28;20247;-90
2021/08/08 07:34:24;;;;;;;;;;;14.60;99.90;;;;;;5077606;28;19932;-90
2021/08/08 07:36:51;;;;;;;;;;;14.60;99.90;;;;;;5077557;28;19939;-89
2021/08/08 07:39:17;;;;;;;;;;;14.60;99.90;;;;;;5077414;28;19935;-89
2021/08/08 07:41:46;;;;;;;;;;;14.60;99.90;;;;;;5077841;28;19936;-90
2021/08/08 07:44:13;;;;;;;;;;;14.60;99.90;;;;;;5077617;28;19925;-90
2021/08/08 07:46:39;;;;;;;;;;;14.60;99.90;;;;;;5077717;28;19935;-89
2021/08/08 07:49:07;;;;;;;;;;;14.60;99.90;;;;;;5077466;28;19931;-89
2021/08/08 07:51:33;;;;;;;;;;;14.60;99.90;;;;;;5077516;28;19924;-90
2021/08/08 07:54:00;;;;;;;;;;;14.60;99.90;;;;;;5077327;28;19939;-89
2021/08/08 07:56:27;;;;;;;;;;;14.60;99.90;;;;;;5077420;28;19935;-90
2021/08/08 07:58:55;;;;;;;;;;;14.60;99.90;;;;;;5077282;28;19924;-90
2021/08/08 08:01:22;;;;;;;;;;;14.70;99.90;;;;;;5077507;28;19931;-89
2021/08/08 08:03:49;;;;;;;;;;;14.70;99.90;;;;;;5077342;28;19934;-90
2021/08/08 08:06:16;;;;;;;;;;;14.80;99.90;;;;;;5077238;28;19935;-90
2021/08/08 08:08:43;;;;;;;;;;;14.90;99.90;;;;;;5077145;28;19931;-90
2021/08/08 08:11:10;;;;;;;;;;;15.00;99.90;;;;;;5077101;28;20031;-90
2021/08/08 08:13:37;;;;;;;;;;;15.10;99.90;;;;;;5077355;28;19924;-91
2021/08/08 08:16:05;;;;;;;;;;;15.10;99.90;;;;;;5077178;28;19978;-90
2021/08/08 08:18:32;;;;;;;;;;;15.20;99.90;;;;;;5077208;28;19924;-91
2021/08/08 08:20:59;;;;;;;;;;;15.20;99.90;;;;;;5076924;28;19934;-90
2021/08/08 08:23:26;;;;;;;;;;;15.20;99.90;;;;;;5076924;28;19931;-89
2021/08/08 08:25:53;;;;;;;;;;;15.30;99.90;;;;;;5077012;28;19930;-89
2021/08/08 08:28:20;;;;;;;;;;;15.40;99.90;;;;;;5077004;28;19935;-89
2021/08/08 08:30:46;;;;;;;;;;;15.50;99.90;;;;;;5076695;28;19932;-90
2021/08/08 08:33:15;;;;;;;;;;;15.50;99.90;;;;;;5076549;28;20333;-89
2021/08/08 08:35:42;;;;;;;;;;;15.50;99.90;;;;;;5076474;28;19932;-90
2021/08/08 08:38:08;;;;;;;;;;;15.40;99.90;;;;;;5076190;28;19953;-90
2021/08/08 08:40:36;;;;;;;;;;;15.40;99.90;;;;;;5076545;28;19924;-90
2021/08/08 08:43:03;;;;;;;;;;;15.40;99.90;;;;;;5076479;28;19925;-89
2021/08/08 08:45:30;;;;;;;;;;;15.50;99.90;;;;;;5076171;28;19925;-89
2021/08/08 08:47:57;;;;;;;;;;;15.50;99.90;;;;;;5076596;28;19924;-90
2021/08/08 08:50:25;;;;;;;;;;;15.50;99.90;;;;;;5076198;28;19935;-90
2021/08/08 08:52:52;;;;;;;;;;;15.60;99.90;;;;;;5076492;28;20243;-90
2021/08/08 08:55:19;;;;;;;;;;;15.60;99.90;;;;;;5076055;28;20342;-90
2021/08/08 08:57:46;;;;;;;;;;;15.60;99.90;;;;;;5076194;28;20346;-89
2021/08/08 09:00:13;;;;;;;;;;;15.50;99.90;;;;;;5076330;28;19942;-90
2021/08/08 09:02:40;;;;;;;;;;;15.50;99.90;;;;;;5075728;28;20376;-88
2021/08/08 09:05:07;;;;;;;;;;;15.40;99.90;;;;;;5075592;28;19925;-86
2021/08/08 09:07:35;;;;;;;;;;;15.40;99.90;;;;;;5075643;28;19932;-88
2021/08/08 09:10:02;;;;;;;;;;;15.40;99.90;;;;;;5075635;28;19928;-88
2021/08/08 09:12:30;;;;;;;;;;;15.30;99.90;;;;;;5075414;28;20253;-88
2021/08/08 09:15:01;;;;;;;;;;;15.30;99.90;;;;;;5075599;28;19924;-89
2021/08/08 09:17:29;;;;;;;;;;;15.30;99.90;;;;;;5076043;28;19924;-88
2021/08/08 09:20:01;;;;;;;;;;;15.40;99.90;;;;;;5075604;28;19924;-89
2021/08/08 09:22:29;;;;;;;;;;;15.50;99.90;;;;;;5075663;28;19928;-89
2021/08/08 09:24:59;;;;;;;;;;;15.50;99.90;;;;;;5075772;28;19924;-90
2021/08/08 09:27:30;;;;;;;;;;;15.50;99.90;;;;;;5075602;28;20265;-89
2021/08/08 09:30:00;;;;;;;;;;;15.50;99.90;;;;;;5075727;28;19935;-89
2021/08/08 09:32:32;;;;;;;;;;;15.60;99.90;;;;;;5075909;28;19970;-89
2021/08/08 09:35:13;;;;;;;;;;;15.80;99.90;;;;;;5075923;28;19935;-89
2021/08/08 09:37:41;;;;;;;;;;;15.90;99.90;;;;;;5075735;28;19929;-89
2021/08/08 09:40:18;;;;;;;;;;;16.00;99.90;;;;;;5075576;28;19938;-89
2021/08/08 09:42:48;;;;;;;;;;;16.00;99.90;;;;;;5075586;28;20254;-89
2021/08/08 09:45:17;;;;;;;;;;;16.00;99.90;;;;;;5075499;28;19976;-89
2021/08/08 09:47:46;;;;;;;;;;;16.00;99.90;;;;;;5075502;28;20341;-89
2021/08/08 09:50:14;;;;;;;;;;;15.90;99.90;;;;;;5074879;28;19928;-89
2021/08/08 09:52:42;;;;;;;;;;;15.90;99.90;;;;;;5075461;28;19924;-89
2021/08/08 09:58:20;;;;;;;;;;;15.90;99.90;;;;;;5134124;27;19922;-89
2021/08/08 10:00:49;;;;;;;;;;;16.00;99.90;;;;;;5134237;27;20000;-89
2021/08/08 10:03:17;;;;;;;;;;;16.00;99.90;;;;;;5133719;27;19934;-89
2021/08/08 10:05:44;;;;;;;;;;;16.10;99.90;;;;;;5133952;27;19924;-89
2021/08/08 10:08:13;;;;;;;;;;;16.20;99.90;;;;;;5133636;27;19923;-89
2021/08/08 10:10:41;;;;;;;;;;;16.20;99.90;;;;;;5133628;27;19935;-88
2021/08/08 10:13:38;;;;;;;;;;;16.20;99.90;;;;;;5133511;27;19928;-88
2021/08/08 10:16:10;;;;;;;;;;;16.10;99.90;;;;;;5111268;28;19934;-88
2021/08/08 10:18:46;;;;;;;;;;;16.10;99.90;;;;;;5111330;28;19953;-89
2021/08/08 10:21:15;;;;;;;;;;;16.20;99.90;;;;;;5111485;28;20241;-88
2021/08/08 10:23:45;;;;;;;;;;;16.30;99.90;;;;;;5110960;28;20411;-88
2021/08/08 10:26:14;;;;;;;;;;;16.40;99.90;;;;;;5110954;28;20482;-88
2021/08/08 10:28:42;;;;;;;;;;;16.40;99.90;;;;;;5111051;28;19924;-88
2021/08/08 10:31:17;;;;;;;;;;;16.40;99.90;;;;;;5111373;28;20310;-88
2021/08/08 10:33:46;;;;;;;;;;;16.30;99.90;;;;;;5110969;28;20375;-88
2021/08/08 10:36:20;;;;;;;;;;;16.40;99.90;;;;;;5110815;28;19931;-88
2021/08/08 10:38:49;;;;;;;;;;;16.40;99.90;;;;;;5110913;28;19938;-88
2021/08/08 10:41:17;;;;;;;;;;;16.50;99.90;;;;;;5110702;28;19934;-88
2021/08/08 10:43:48;;;;;;;;;;;16.50;99.90;;;;;;5110629;28;19924;-87
2021/08/08 10:46:17;;;;;;;;;;;16.60;99.90;;;;;;5110869;27;19974;-87
2021/08/08 10:48:45;;;;;;;;;;;16.60;99.90;;;;;;5109825;28;19924;-87
2021/08/08 10:51:21;;;;;;;;;;;16.50;99.90;;;;;;5130222;28;19934;-87
2021/08/08 10:53:59;;;;;;;;;;;16.40;99.90;;;;;;5132561;27;19939;-87
2021/08/08 10:56:38;;;;;;;;;;;16.30;99.90;;;;;;5132485;27;19931;-87
2021/08/08 10:59:14;;;;;;;;;;;16.30;99.90;;;;;;5132538;28;19923;-87
2021/08/08 11:01:44;;;;;;;;;;;16.40;99.90;;;;;;5132786;28;19924;-86
2021/08/08 11:04:12;;;;;;;;;;;16.50;99.90;;;;;;5131109;28;19923;-85
2021/08/08 11:06:41;;;;;;;;;;;16.60;99.90;;;;;;5132179;28;19927;-85
2021/08/08 11:09:09;;;;;;;;;;;16.80;99.90;;;;;;5120610;28;19928;-86
2021/08/08 11:11:38;;;;;;;;;;;16.90;99.90;;;;;;5118001;28;19930;-87
2021/08/08 11:14:11;;;;;;;;;;;16.90;99.90;;;;;;5118510;28;20314;-86
2021/08/08 11:16:39;;;;;;;;;;;17.00;99.90;;;;;;5118187;28;19938;-85
2021/08/08 11:19:08;;;;;;;;;;;17.20;99.90;;;;;;5118229;28;19935;-86
2021/08/08 11:21:37;;;;;;;;;;;17.20;99.90;;;;;;5118546;28;19967;-85
2021/08/08 11:24:04;;;;;;;;;;;17.30;99.90;;;;;;5118413;28;19924;-85
2021/08/08 11:26:32;;;;;;;;;;;17.40;99.90;;;;;;5118439;28;20236;-85
2021/08/08 11:29:00;;;;;;;;;;;17.40;99.90;;;;;;5118245;28;19950;-85
2021/08/08 11:31:29;;;;;;;;;;;17.30;99.90;;;;;;5114736;28;19938;-85
2021/08/08 11:33:58;;;;;;;;;;;17.40;99.90;;;;;;5117059;28;19934;-85
2021/08/08 11:36:31;;;;;;;;;;;17.40;99.90;;;;;;5118220;28;19923;-85
2021/08/08 11:39:00;;;;;;;;;;;17.40;99.90;;;;;;5118044;28;19924;-84
2021/08/08 11:41:29;;;;;;;;;;;17.30;99.90;;;;;;5118068;28;19950;-84
2021/08/08 11:44:03;;;;;;;;;;;17.20;99.90;;;;;;5117689;28;19923;-84
2021/08/08 11:46:32;;;;;;;;;;;17.20;99.90;;;;;;5117953;28;20278;-84
2021/08/08 11:49:00;;;;;;;;;;;17.20;99.90;;;;;;5117803;28;19927;-85
2021/08/08 11:51:28;;;;;;;;;;;17.20;99.90;;;;;;5117951;28;19923;-84
2021/08/08 11:53:58;;;;;;;;;;;17.10;99.90;;;;;;5117493;28;19981;-84
2021/08/08 11:56:28;;;;;;;;;;;17.20;99.90;;;;;;5117257;28;19924;-84
2021/08/08 11:58:57;;;;;;;;;;;17.10;99.90;;;;;;5117919;28;19966;-84
2021/08/08 12:01:26;;;;;;;;;;;17.10;99.90;;;;;;5117669;28;19985;-84
2021/08/08 12:03:54;;;;;;;;;;;17.20;99.90;;;;;;5117527;28;19923;-84
2021/08/08 12:06:25;;;;;;;;;;;17.30;99.90;;;;;;5117382;28;20377;-83
2021/08/08 12:08:53;;;;;;;;;;;17.50;99.90;;;;;;5117460;28;20044;-83
2021/08/08 12:11:23;;;;;;;;;;;17.50;99.90;;;;;;5117572;28;19924;-83
2021/08/08 12:14:03;;;;;;;;;;;17.40;99.90;;;;;;5117359;28;19930;-83
2021/08/08 12:16:35;;;;;;;;;;;17.40;99.90;;;;;;5116542;28;20347;-83
2021/08/08 12:19:05;;;;;;;;;;;17.30;99.90;;;;;;5116618;28;20361;-83
2021/08/08 12:21:36;;;;;;;;;;;17.30;99.90;;;;;;5116363;28;20341;-82
2021/08/08 12:24:05;;;;;;;;;;;17.30;99.90;;;;;;5117086;28;19935;-83
2021/08/08 12:26:34;;;;;;;;;;;17.40;99.90;;;;;;5117261;28;20255;-83
2021/08/08 12:29:03;;;;;;;;;;;17.50;99.90;;;;;;5116962;28;20347;-83
2021/08/08 12:31:37;;;;;;;;;;;17.40;99.90;;;;;;5116735;28;20361;-83
2021/08/08 12:34:09;;;;;;;;;;;17.30;99.90;;;;;;5116759;28;20374;-83
2021/08/08 12:36:40;;;;;;;;;;;17.30;99.90;;;;;;5116712;28;19924;-83
2021/08/08 12:39:08;;;;;;;;;;;17.20;99.90;;;;;;5116922;28;19924;-83
2021/08/08 12:41:39;;;;;;;;;;;17.30;99.90;;;;;;5116725;28;20373;-83
2021/08/08 12:44:08;;;;;;;;;;;17.50;99.90;;;;;;5116471;28;20022;-83
2021/08/08 12:46:39;;;;;;;;;;;17.60;99.90;;;;;;5115732;28;19923;-83
2021/08/08 12:49:07;;;;;;;;;;;17.60;99.90;;;;;;5117129;28;19924;-83
2021/08/08 12:51:35;;;;;;;;;;;17.70;99.90;;;;;;5116400;28;19934;-83
2021/08/08 12:54:03;;;;;;;;;;;17.70;99.90;;;;;;5116461;28;19923;-83
2021/08/08 12:56:31;;;;;;;;;;;17.70;99.90;;;;;;5116373;28;19934;-83
2021/08/08 12:59:01;;;;;;;;;;;17.70;99.90;;;;;;5116612;28;19924;-83
2021/08/08 13:01:29;;;;;;;;;;;17.60;99.90;;;;;;5116272;28;19924;-83
2021/08/08 13:04:00;;;;;;;;;;;17.60;99.90;;;;;;5116221;28;19978;-83
2021/08/08 13:06:28;;;;;;;;;;;17.60;99.90;;;;;;5116326;28;19924;-84
2021/08/08 13:08:58;;;;;;;;;;;17.60;99.90;;;;;;5116450;28;19927;-83
2021/08/08 13:11:26;;;;;;;;;;;17.40;99.90;;;;;;5116325;28;19947;-83
2021/08/08 13:13:54;;;;;;;;;;;17.30;99.90;;;;;;5116056;28;19924;-83
2021/08/08 13:16:31;;;;;;;;;;;17.20;99.90;;;;;;5116345;28;20044;-83
2021/08/08 13:18:59;;;;;;;;;;;17.00;99.90;;;;;;5115952;28;20328;-84
2021/08/08 13:21:28;;;;;;;;;;;16.90;99.90;;;;;;5116000;28;20449;-84
2021/08/08 13:23:56;;;;;;;;;;;16.80;99.90;;;;;;5116013;28;20248;-84
2021/08/08 13:26:24;;;;;;;;;;;16.70;99.90;;;;;;5115912;28;19923;-84
2021/08/08 13:28:52;;;;;;;;;;;16.70;99.90;;;;;;5116002;28;20274;-83
2021/08/08 13:31:20;;;;;;;;;;;16.60;99.90;;;;;;5115599;28;19924;-84
2021/08/08 13:33:51;;;;;;;;;;;16.60;99.90;;;;;;5115696;28;20228;-83
2021/08/08 13:36:19;;;;;;;;;;;16.50;99.90;;;;;;5115747;28;19923;-83
2021/08/08 13:38:47;;;;;;;;;;;16.60;99.90;;;;;;5115749;28;19934;-83
2021/08/08 13:41:15;;;;;;;;;;;16.60;99.90;;;;;;5115755;28;19931;-84
2021/08/08 13:43:46;;;;;;;;;;;16.60;99.90;;;;;;5115645;28;19930;-84
2021/08/08 13:46:14;;;;;;;;;;;16.50;99.90;;;;;;5115915;28;20262;-84
2021/08/08 13:48:42;;;;;;;;;;;16.50;99.90;;;;;;5115705;28;19934;-84
2021/08/08 13:51:11;;;;;;;;;;;16.40;99.90;;;;;;5115542;28;19924;-84
2021/08/08 13:53:39;;;;;;;;;;;16.30;99.90;;;;;;5115459;28;19923;-84
2021/08/08 13:56:07;;;;;;;;;;;16.30;99.90;;;;;;5115362;28;20374;-86
2021/08/08 13:58:34;;;;;;;;;;;16.30;99.90;;;;;;5115351;28;19923;-86
2021/08/08 14:01:02;;;;;;;;;;;16.30;99.90;;;;;;5115476;28;20078;-86
2021/08/08 14:03:30;;;;;;;;;;;16.30;99.90;;;;;;5115328;28;19924;-86
2021/08/08 14:05:58;;;;;;;;;;;16.30;99.90;;;;;;5112739;28;19924;-86
2021/08/08 14:08:28;;;;;;;;;;;16.30;99.90;;;;;;5115530;28;20286;-85
2021/08/08 14:10:56;;;;;;;;;;;16.30;99.90;;;;;;5115505;28;19928;-86
2021/08/08 14:13:24;;;;;;;;;;;16.30;99.90;;;;;;5115401;28;19934;-86
2021/08/08 14:15:52;;;;;;;;;;;16.30;99.90;;;;;;5115510;28;19924;-87
2021/08/08 14:18:20;;;;;;;;;;;16.20;99.90;;;;;;5115298;28;19931;-84
2021/08/08 14:20:49;;;;;;;;;;;16.10;99.90;;;;;;5115152;28;19930;-84
2021/08/08 14:23:16;;;;;;;;;;;16.10;99.90;;;;;;5115343;28;19924;-84